createdAt,value
2019-05-06T00:05:49.001Z,5.70
2019-05-06T00:14:06.507Z,6.33
2019-05-06T00:22:24.151Z,4.65
2019-05-06T00:30:43.911Z,5.63
2019-05-06T00:39:11.587Z,5.50
2019-05-06T00:47:29.049Z,4.60
2019-05-06T00:55:46.566Z,5.57
2019-05-06T01:04:05.076Z,4.60
2019-05-06T01:12:23.995Z,6.17
2019-05-06T01:20:41.540Z,5.37
2019-05-06T01:28:59.003Z,5.20
2019-05-06T01:37:16.514Z,4.67
2019-05-06T01:45:34.865Z,6.03
2019-05-06T01:53:54.425Z,4.33
2019-05-06T02:02:11.752Z,4.50
2019-05-06T02:10:29.214Z,5.37
2019-05-06T02:18:46.668Z,5.27
2019-05-06T02:27:04.719Z,5.73
2019-05-06T02:35:50.508Z,4.70
2019-05-06T02:44:10.277Z,4.83
2019-05-06T02:52:27.120Z,5.80
2019-05-06T03:00:44.568Z,6.97
2019-05-06T03:09:03.142Z,6.10
2019-05-06T03:17:23.512Z,6.10
2019-05-06T03:25:43.942Z,5.60
2019-05-06T03:34:29.063Z,6.57
2019-05-06T03:42:22.779Z,6.00
2019-05-06T03:50:39.057Z,6.77
2019-05-06T03:58:57.749Z,7.03
2019-05-06T04:07:15.417Z,7.17
2019-05-06T04:15:54.720Z,6.93
2019-05-06T04:24:18.962Z,7.28
2019-05-06T04:32:36.512Z,7.30
2019-05-06T04:40:54.385Z,7.83
2019-05-06T04:49:14.841Z,6.57
2019-05-06T04:57:33.567Z,6.03
2019-05-06T05:05:53.079Z,7.73
2019-05-06T05:14:25.478Z,6.67
2019-05-06T05:22:42.342Z,6.73
2019-05-06T05:30:59.962Z,6.70
2019-05-06T05:39:17.837Z,6.27
2019-05-06T05:47:35.360Z,6.80
2019-05-06T05:55:52.918Z,7.63
2019-05-06T06:04:10.362Z,6.37
2019-05-06T06:12:27.896Z,7.30
2019-05-06T06:20:58.645Z,6.07
2019-05-06T06:29:16.989Z,4.97
2019-05-06T06:37:44.276Z,6.17
2019-05-06T06:46:02.485Z,6.30
2019-05-06T06:54:20.252Z,5.40
2019-05-06T07:02:43.229Z,4.83
2019-05-06T07:11:02.208Z,4.43
2019-05-06T07:19:26.433Z,4.60
2019-05-06T07:27:43.882Z,5.13
2019-05-06T07:36:25.873Z,4.30
2019-05-06T07:44:58.438Z,3.47
2019-05-06T07:53:16.223Z,4.30
2019-05-06T08:01:33.681Z,3.57
2019-05-06T08:09:52.915Z,4.33
2019-05-06T08:18:12.559Z,3.50
2019-05-06T08:26:32.258Z,3.25
2019-05-06T08:34:49.538Z,4.00
2019-05-06T08:43:06.979Z,3.47
2019-05-06T08:51:33.164Z,2.70
2019-05-06T08:59:50.819Z,3.60
2019-05-06T09:08:08.656Z,3.03
2019-05-06T09:16:26.160Z,3.77
2019-05-06T09:24:43.596Z,3.13
2019-05-06T09:33:02.619Z,3.73
2019-05-06T09:41:22.952Z,3.67
2019-05-06T09:49:39.596Z,3.20
2019-05-06T09:58:03.539Z,2.90
2019-05-06T10:06:22.261Z,2.90
2019-05-06T10:14:43.070Z,2.43
2019-05-06T10:23:00.197Z,3.00
2019-05-06T10:31:39.609Z,3.27
2019-05-06T10:40:06.108Z,2.77
2019-05-06T10:48:23.689Z,3.00
2019-05-06T10:57:02.351Z,2.70
2019-05-06T11:05:19.933Z,2.77
2019-05-06T11:13:37.340Z,2.33
2019-05-06T11:21:54.818Z,2.87
2019-05-06T11:30:24.835Z,3.13
2019-05-06T11:38:39.860Z,2.93
2019-05-06T11:46:57.305Z,2.70
2019-05-06T11:55:27.906Z,3.00
2019-05-06T12:03:34.320Z,3.30
2019-05-06T12:11:52.836Z,3.57
2019-05-06T12:20:12.919Z,3.40
2019-05-06T12:28:29.811Z,2.80
2019-05-06T12:36:48.961Z,4.10
2019-05-06T12:45:34.998Z,3.83
2019-05-06T12:53:53.005Z,2.80
2019-05-06T13:02:13.278Z,3.37
2019-05-06T13:10:30.173Z,2.40
2019-05-06T13:18:51.559Z,3.10
2019-05-06T13:27:07.898Z,3.87
2019-05-06T13:35:25.374Z,3.50
2019-05-06T13:43:54.014Z,4.00
2019-05-06T13:52:12.751Z,4.07
2019-05-06T14:00:32.971Z,3.47
2019-05-06T14:08:52.841Z,2.90
2019-05-06T14:17:09.845Z,3.30
2019-05-06T14:25:39.262Z,3.77
2019-05-06T14:33:56.704Z,6.27
2019-05-06T14:42:14.160Z,4.03
2019-05-06T14:50:44.276Z,3.00
2019-05-06T14:59:04.997Z,2.83
2019-05-06T15:07:22.493Z,3.73
2019-05-06T15:15:39.929Z,3.87
2019-05-06T15:23:57.421Z,3.00
2019-05-06T15:32:25.033Z,4.00
2019-05-06T15:40:44.056Z,3.57
2019-05-06T15:49:02.980Z,3.30
2019-05-06T15:57:22.693Z,4.20
2019-05-06T16:05:39.840Z,4.67
2019-05-06T16:13:57.548Z,4.73
2019-05-06T16:22:15.086Z,4.87
2019-05-06T16:30:33.780Z,3.63
2019-05-06T16:38:52.555Z,2.80
2019-05-06T16:47:12.333Z,5.07
2019-05-06T16:55:55.468Z,3.65
2019-05-06T17:04:26.636Z,3.43
2019-05-06T17:12:44.060Z,4.03
2019-05-06T17:21:01.480Z,3.83
2019-05-06T17:29:42.928Z,4.12
2019-05-06T17:38:08.897Z,3.70
2019-05-06T17:46:28.224Z,3.90
2019-05-06T17:54:45.688Z,4.40
2019-05-06T18:03:03.100Z,5.30
2019-05-06T18:11:22.368Z,4.33
2019-05-06T18:19:39.741Z,4.73
2019-05-06T18:27:57.192Z,4.40
2019-05-06T18:36:14.667Z,3.47
2019-05-06T18:44:33.242Z,2.83
2019-05-06T18:52:52.971Z,2.83
2019-05-06T19:01:10.440Z,2.90
2019-05-06T19:10:03.231Z,2.15
2019-05-06T19:18:22.444Z,3.00
2019-05-06T19:26:40.100Z,2.17
2019-05-06T19:34:57.700Z,3.40
2019-05-06T19:43:15.211Z,2.97
2019-05-06T19:51:33.103Z,4.30
2019-05-06T19:59:52.146Z,4.67
2019-05-06T20:08:23.155Z,4.20
2019-05-06T20:16:42.000Z,3.93
2019-05-06T20:24:59.752Z,8.90
2019-05-06T20:33:17.193Z,3.20
2019-05-06T20:41:34.767Z,5.23
2019-05-06T20:49:52.699Z,3.63
2019-05-06T20:58:12.237Z,7.20
2019-05-06T21:06:29.600Z,3.97
2019-05-06T21:14:47.578Z,3.50
2019-05-06T21:23:05.139Z,4.23
2019-05-06T21:31:22.597Z,3.60
2019-05-06T21:39:42.255Z,4.10
2019-05-06T21:47:59.271Z,7.07
2019-05-06T21:56:16.726Z,7.13
2019-05-06T22:04:34.293Z,4.37
2019-05-06T22:12:52.708Z,6.03
2019-05-06T22:21:22.527Z,6.20
2019-05-06T22:29:42.590Z,6.20
2019-05-06T22:37:59.677Z,6.47
2019-05-06T22:46:18.338Z,4.90
2019-05-06T22:54:36.044Z,4.30
2019-05-06T23:02:58.473Z,3.77
2019-05-06T23:11:15.942Z,5.45
2019-05-06T23:19:33.621Z,5.30
2019-05-06T23:27:52.964Z,4.00
2019-05-06T23:36:12.090Z,4.67
2019-05-06T23:44:47.568Z,5.80
2019-05-06T23:53:23.481Z,3.83
